createdAt,value
2018-07-14T00:02:20.113Z,72.60
2018-07-14T00:04:47.788Z,72.60
2018-07-14T00:07:15.445Z,72.50
2018-07-14T00:09:43.098Z,72.50
2018-07-14T00:12:10.715Z,72.60
2018-07-14T00:14:38.338Z,72.60
2018-07-14T00:17:05.918Z,72.50
2018-07-14T00:19:33.524Z,72.60
2018-07-14T00:22:01.119Z,72.80
2018-07-14T00:26:56.200Z,72.60
2018-07-14T00:29:23.803Z,72.70
2018-07-14T00:31:51.461Z,72.60
2018-07-14T00:34:19.079Z,72.30
2018-07-14T00:36:46.728Z,72.60
2018-07-14T00:39:14.384Z,72.50
2018-07-14T00:41:41.951Z,72.40
2018-07-14T00:44:09.618Z,72.20
2018-07-14T00:46:37.219Z,72.20
2018-07-14T00:49:05.179Z,72.20
2018-07-14T00:51:33.120Z,72.40
2018-07-14T00:54:00.797Z,72.70
2018-07-14T00:56:28.374Z,72.90
2018-07-14T00:58:55.980Z,73.10
2018-07-14T01:01:23.635Z,73.10
2018-07-14T01:03:51.243Z,73.10
2018-07-14T01:06:18.995Z,73.00
2018-07-14T01:08:46.599Z,72.90
2018-07-14T01:11:14.525Z,72.70
2018-07-14T01:13:42.171Z,73.20
2018-07-14T01:16:09.777Z,73.30
2018-07-14T01:18:37.381Z,73.30
2018-07-14T01:21:05.041Z,73.20
2018-07-14T01:23:32.645Z,73.20
2018-07-14T01:26:00.229Z,73.30
2018-07-14T01:28:27.820Z,73.50
2018-07-14T01:30:55.417Z,73.50
2018-07-14T01:33:23.016Z,73.80
2018-07-14T01:35:50.668Z,73.90
2018-07-14T01:38:18.320Z,73.80
2018-07-14T01:40:45.924Z,73.80
2018-07-14T01:43:13.543Z,74.00
2018-07-14T01:45:41.145Z,74.00
2018-07-14T01:48:08.739Z,74.30
2018-07-14T01:50:36.478Z,74.30
2018-07-14T01:53:04.094Z,74.50
2018-07-14T01:55:31.707Z,74.30
2018-07-14T01:57:59.279Z,74.10
2018-07-14T02:00:26.927Z,73.80
2018-07-14T02:02:54.673Z,74.00
2018-07-14T02:05:29.565Z,74.30
2018-07-14T02:07:57.143Z,74.80
2018-07-14T02:10:24.764Z,75.10
2018-07-14T02:12:52.363Z,75.20
2018-07-14T02:15:19.954Z,74.90
2018-07-14T02:17:47.560Z,74.70
2018-07-14T02:20:15.243Z,74.70
2018-07-14T02:22:42.861Z,74.90
2018-07-14T02:25:11.123Z,75.10
2018-07-14T02:27:54.983Z,75.20
2018-07-14T02:30:22.649Z,75.30
2018-07-14T02:32:50.377Z,75.30
2018-07-14T02:35:18.030Z,75.40
2018-07-14T02:37:45.685Z,75.40
2018-07-14T02:40:13.917Z,75.50
2018-07-14T02:42:41.603Z,75.50
2018-07-14T02:45:09.938Z,75.30
2018-07-14T02:47:37.618Z,75.00
2018-07-14T02:50:05.320Z,74.40
2018-07-14T02:52:32.912Z,74.00
2018-07-14T02:55:00.525Z,74.20
2018-07-14T02:57:28.183Z,74.30
2018-07-14T03:02:23.402Z,74.50
2018-07-14T03:04:51.003Z,74.70
2018-07-14T03:07:18.659Z,74.80
2018-07-14T03:09:46.313Z,75.10
2018-07-14T03:12:13.918Z,75.00
2018-07-14T03:14:41.532Z,75.20
2018-07-14T03:17:09.199Z,74.90
2018-07-14T03:19:36.847Z,74.70
2018-07-14T03:22:04.464Z,74.50
2018-07-14T03:24:32.097Z,74.40
2018-07-14T03:26:59.725Z,74.20
2018-07-14T03:29:27.340Z,74.20
2018-07-14T03:32:01.937Z,74.00
2018-07-14T03:34:29.554Z,74.00
2018-07-14T03:36:57.807Z,74.10
2018-07-14T03:39:26.247Z,74.30
2018-07-14T03:41:53.956Z,74.40
2018-07-14T03:44:22.183Z,74.40
2018-07-14T03:46:49.777Z,74.50
2018-07-14T03:49:32.741Z,74.70
2018-07-14T03:52:19.587Z,74.60
2018-07-14T03:54:47.272Z,74.60
2018-07-14T03:57:14.957Z,74.50
2018-07-14T03:59:42.599Z,74.20
2018-07-14T04:02:10.516Z,74.00
2018-07-14T04:04:38.201Z,73.90
2018-07-14T04:07:05.876Z,74.00
2018-07-14T04:09:33.513Z,74.10
2018-07-14T04:12:01.197Z,74.50
2018-07-14T04:14:28.820Z,74.70
2018-07-14T04:16:56.470Z,74.90
2018-07-14T04:19:24.097Z,75.10
2018-07-14T04:21:52.105Z,75.00
2018-07-14T04:24:19.718Z,75.00
2018-07-14T04:26:47.366Z,75.10
2018-07-14T04:29:14.998Z,75.00
2018-07-14T04:31:42.694Z,74.80
2018-07-14T04:34:10.374Z,74.90
2018-07-14T04:36:37.976Z,74.80
2018-07-14T04:39:05.668Z,74.80
2018-07-14T04:41:33.691Z,74.60
2018-07-14T04:44:01.541Z,74.60
2018-07-14T04:46:29.180Z,74.70
2018-07-14T04:48:56.850Z,74.30
2018-07-14T04:51:24.503Z,73.90
2018-07-14T04:53:52.136Z,74.30
2018-07-14T04:56:19.817Z,74.60
2018-07-14T04:58:47.492Z,74.80
2018-07-14T05:01:15.135Z,74.90
2018-07-14T05:03:46.431Z,74.90
2018-07-14T05:06:14.060Z,74.80
2018-07-14T05:08:41.708Z,74.40
2018-07-14T05:11:09.375Z,74.00
2018-07-14T05:13:39.662Z,74.10
2018-07-14T05:16:07.281Z,74.20
2018-07-14T05:18:34.940Z,74.40
2018-07-14T05:21:02.588Z,74.60
2018-07-14T05:23:30.249Z,74.70
2018-07-14T05:25:57.919Z,74.50
2018-07-14T05:28:26.179Z,73.50
2018-07-14T05:30:54.615Z,72.60
2018-07-14T05:33:22.220Z,72.70
2018-07-14T05:35:49.909Z,72.30
2018-07-14T05:38:17.499Z,72.00
2018-07-14T05:40:45.172Z,71.60
2018-07-14T05:43:13.436Z,71.00
2018-07-14T05:45:41.073Z,71.70
2018-07-14T05:48:08.700Z,70.90
2018-07-14T05:50:36.338Z,71.00
2018-07-14T05:53:03.965Z,71.90
2018-07-14T05:55:31.790Z,72.10
2018-07-14T05:57:59.979Z,72.60
2018-07-14T06:00:27.641Z,73.30
2018-07-14T06:02:55.378Z,74.10
2018-07-14T06:05:25.270Z,75.70
2018-07-14T06:07:53.012Z,76.50
2018-07-14T06:10:20.725Z,76.90
2018-07-14T06:12:48.990Z,76.70
2018-07-14T06:15:16.627Z,77.10
2018-07-14T06:17:44.274Z,75.00
2018-07-14T06:20:11.885Z,76.10
2018-07-14T06:22:39.563Z,77.50
2018-07-14T06:25:07.573Z,78.20
2018-07-14T06:27:35.880Z,78.40
2018-07-14T06:30:05.104Z,78.30
2018-07-14T06:32:32.770Z,78.10
2018-07-14T06:35:00.439Z,78.60
2018-07-14T06:37:29.074Z,79.20
2018-07-14T06:40:01.333Z,78.80
2018-07-14T06:42:41.805Z,78.70
2018-07-14T06:45:17.532Z,78.00
2018-07-14T06:47:45.904Z,76.20
2018-07-14T06:50:14.691Z,75.90
2018-07-14T06:52:42.679Z,75.00
2018-07-14T06:55:10.571Z,75.10
2018-07-14T06:57:39.111Z,75.00
2018-07-14T07:00:07.208Z,73.50
2018-07-14T07:02:35.289Z,72.30
2018-07-14T07:05:03.176Z,71.50
2018-07-14T07:07:31.560Z,71.60
2018-07-14T07:10:00.411Z,70.80
2018-07-14T07:12:28.485Z,71.40
2018-07-14T07:14:57.331Z,72.60
2018-07-14T07:17:25.295Z,74.40
2018-07-14T07:19:53.286Z,74.50
2018-07-14T07:22:21.184Z,74.90
2018-07-14T07:24:50.862Z,73.80
2018-07-14T07:27:19.038Z,73.40
2018-07-14T07:29:47.545Z,73.80
2018-07-14T07:32:16.676Z,73.90
2018-07-14T07:34:45.206Z,70.10
2018-07-14T07:37:13.484Z,71.00
2018-07-14T07:39:41.633Z,72.10
2018-07-14T07:42:10.161Z,72.00
2018-07-14T07:44:38.662Z,71.40
2018-07-14T07:47:07.092Z,71.40
2018-07-14T07:49:35.891Z,71.80
2018-07-14T07:54:32.792Z,70.70
2018-07-14T07:57:00.797Z,70.20
2018-07-14T07:59:29.668Z,70.70
2018-07-14T08:01:59.176Z,69.80
2018-07-14T08:04:28.402Z,67.90
2018-07-14T08:06:56.844Z,66.80
2018-07-14T08:09:25.142Z,65.50
2018-07-14T08:11:53.402Z,65.40
2018-07-14T08:17:00.813Z,65.30
2018-07-14T08:19:29.006Z,66.30
2018-07-14T08:21:57.366Z,65.80
2018-07-14T08:24:25.757Z,65.40
2018-07-14T08:26:54.068Z,63.50
2018-07-14T08:29:22.415Z,63.50
2018-07-14T08:31:51.153Z,62.70
2018-07-14T08:34:19.462Z,63.80
2018-07-14T08:36:57.360Z,64.10
2018-07-14T08:39:25.661Z,62.20
2018-07-14T08:41:53.898Z,62.80
2018-07-14T08:44:22.320Z,63.40
2018-07-14T08:46:50.835Z,63.10
2018-07-14T08:49:19.310Z,63.20
2018-07-14T08:51:48.087Z,62.80
2018-07-14T08:54:16.520Z,64.10
2018-07-14T08:56:44.906Z,61.50
2018-07-14T08:59:13.316Z,60.90
2018-07-14T09:01:41.818Z,60.80
2018-07-14T09:04:10.263Z,60.10
2018-07-14T09:06:38.613Z,59.60
2018-07-14T09:09:08.328Z,60.60
2018-07-14T09:11:36.698Z,59.50
2018-07-14T09:14:05.182Z,60.70
2018-07-14T09:16:33.299Z,59.20
2018-07-14T09:19:01.410Z,60.00
2018-07-14T09:21:29.971Z,61.20
2018-07-14T09:24:00.448Z,60.80
2018-07-14T09:28:58.650Z,60.00
2018-07-14T09:31:27.155Z,60.00
2018-07-14T09:33:55.469Z,59.00
2018-07-14T09:36:23.725Z,59.30
2018-07-14T09:38:51.999Z,58.30
2018-07-14T09:41:20.397Z,59.00
2018-07-14T09:43:48.575Z,57.70
2018-07-14T09:46:17.113Z,57.50
2018-07-14T09:48:56.049Z,56.70
2018-07-14T09:51:24.350Z,57.10
2018-07-14T09:53:52.782Z,57.40
2018-07-14T09:56:21.050Z,56.60
2018-07-14T10:01:28.725Z,56.20
2018-07-14T10:03:56.957Z,55.80
2018-07-14T10:06:25.840Z,55.20
2018-07-14T10:08:54.177Z,54.90
2018-07-14T10:11:22.539Z,53.80
2018-07-14T10:13:51.943Z,54.40
2018-07-14T10:16:21.012Z,54.10
2018-07-14T10:18:51.415Z,54.90
2018-07-14T10:21:25.867Z,54.80
2018-07-14T10:23:54.819Z,54.20
2018-07-14T10:26:23.286Z,53.90
2018-07-14T10:28:51.836Z,54.40
2018-07-14T10:31:20.399Z,53.60
2018-07-14T10:33:48.904Z,53.40
2018-07-14T10:36:18.008Z,52.80
2018-07-14T10:38:46.922Z,51.70
2018-07-14T10:43:45.661Z,48.90
2018-07-14T10:57:00.736Z,49.30
2018-07-14T10:59:29.336Z,49.30
2018-07-14T11:02:11.069Z,49.90
2018-07-14T11:04:39.881Z,49.90
2018-07-14T11:07:08.280Z,49.90
2018-07-14T11:09:39.250Z,50.30
2018-07-14T11:12:07.755Z,51.30
2018-07-14T11:14:37.831Z,51.30
2018-07-14T11:17:06.344Z,52.60
2018-07-14T11:19:34.011Z,53.40
2018-07-14T11:22:01.672Z,55.40
2018-07-14T11:24:29.434Z,57.40
2018-07-14T11:26:57.085Z,59.30
2018-07-14T11:29:24.705Z,60.70
2018-07-14T11:31:52.340Z,59.80
2018-07-14T11:34:19.956Z,60.10
2018-07-14T11:36:47.590Z,57.60
2018-07-14T11:39:15.296Z,57.30
2018-07-14T11:41:42.880Z,57.00
2018-07-14T11:44:10.458Z,57.40
2018-07-14T11:46:38.034Z,52.70
2018-07-14T11:49:05.642Z,44.20
2018-07-14T11:51:33.330Z,44.20
2018-07-14T11:54:00.962Z,44.60
2018-07-14T11:56:28.547Z,44.80
2018-07-14T11:58:56.137Z,45.10
2018-07-14T12:01:23.823Z,44.00
2018-07-14T12:03:53.163Z,43.60
2018-07-14T12:08:48.311Z,41.40
2018-07-14T12:11:15.886Z,37.90
2018-07-14T12:13:43.463Z,33.90
2018-07-14T12:16:11.112Z,32.20
2018-07-14T12:18:38.713Z,32.40
2018-07-14T12:21:06.433Z,30.40
2018-07-14T12:23:34.018Z,30.30
2018-07-14T12:26:01.582Z,32.50
2018-07-14T12:28:29.190Z,35.50
2018-07-14T12:30:56.838Z,38.00
2018-07-14T12:33:24.440Z,39.10
2018-07-14T12:35:52.056Z,40.50
2018-07-14T12:38:19.641Z,38.20
2018-07-14T12:40:47.494Z,34.80
2018-07-14T12:43:15.094Z,32.60
2018-07-14T12:45:43.168Z,29.80
2018-07-14T12:48:10.851Z,28.80
2018-07-14T12:50:38.468Z,26.40
2018-07-14T12:53:06.160Z,27.90
2018-07-14T12:55:33.797Z,26.60
2018-07-14T12:58:01.980Z,26.70
2018-07-14T13:00:29.605Z,27.60
2018-07-14T13:02:57.253Z,27.20
2018-07-14T13:05:25.101Z,26.60
2018-07-14T13:07:52.788Z,25.80
2018-07-14T13:10:20.381Z,27.00
2018-07-14T13:12:48.031Z,26.20
2018-07-14T13:15:15.654Z,25.20
2018-07-14T13:17:43.320Z,27.00
2018-07-14T13:20:10.947Z,29.10
2018-07-14T13:22:38.570Z,30.90
2018-07-14T13:25:06.259Z,34.40
2018-07-14T13:27:33.872Z,35.60
2018-07-14T13:30:01.632Z,37.20
2018-07-14T13:32:29.340Z,38.80
2018-07-14T13:34:56.968Z,36.70
2018-07-14T13:37:24.586Z,37.70
2018-07-14T13:39:52.224Z,36.20
2018-07-14T13:42:19.917Z,36.20
2018-07-14T13:44:47.523Z,35.00
2018-07-14T13:47:15.133Z,33.20
2018-07-14T13:49:42.750Z,32.30
2018-07-14T13:52:10.372Z,34.20
2018-07-14T13:54:38.065Z,33.70
2018-07-14T13:57:06.035Z,31.90
2018-07-14T13:59:33.689Z,32.60
2018-07-14T14:02:01.402Z,34.50
2018-07-14T14:04:29.094Z,36.00
2018-07-14T14:06:56.758Z,35.50
2018-07-14T14:09:24.397Z,34.00
2018-07-14T14:11:52.044Z,36.20
2018-07-14T14:14:19.703Z,35.10
2018-07-14T14:16:47.345Z,36.20
2018-07-14T14:19:15.009Z,35.50
2018-07-14T14:21:42.676Z,35.70
2018-07-14T14:24:10.303Z,36.00
2018-07-14T14:26:37.967Z,36.50
2018-07-14T14:29:05.589Z,36.30
2018-07-14T14:31:33.212Z,38.00
2018-07-14T14:34:00.904Z,38.90
2018-07-14T14:36:28.554Z,36.80
2018-07-14T14:38:56.188Z,36.70
2018-07-14T14:41:23.836Z,37.70
2018-07-14T14:43:51.466Z,39.40
2018-07-14T14:46:19.076Z,37.40
2018-07-14T14:48:46.760Z,37.30
2018-07-14T14:51:14.399Z,36.80
2018-07-14T14:53:42.046Z,36.90
2018-07-14T14:56:09.729Z,38.20
2018-07-14T14:58:37.279Z,37.20
2018-07-14T15:01:04.967Z,37.40
2018-07-14T15:03:32.687Z,36.70
2018-07-14T15:06:00.313Z,36.50
2018-07-14T15:08:27.932Z,37.10
2018-07-14T15:10:55.595Z,36.80
2018-07-14T15:13:23.231Z,39.00
2018-07-14T15:15:50.835Z,36.70
2018-07-14T15:18:18.480Z,37.40
2018-07-14T15:20:46.141Z,37.10
2018-07-14T15:23:13.786Z,39.70
2018-07-14T15:25:41.482Z,40.70
2018-07-14T15:28:09.131Z,42.10
2018-07-14T15:30:36.753Z,41.10
2018-07-14T15:33:04.549Z,40.20
2018-07-14T15:35:32.069Z,39.50
2018-07-14T15:37:59.727Z,39.70
2018-07-14T15:40:27.352Z,41.50
2018-07-14T15:42:55.051Z,39.90
2018-07-14T15:45:22.686Z,40.60
2018-07-14T15:47:50.297Z,41.70
2018-07-14T15:50:17.940Z,41.20
2018-07-14T15:52:45.595Z,40.60
2018-07-14T15:55:13.261Z,41.70
2018-07-14T15:57:40.893Z,41.50
2018-07-14T16:00:08.693Z,41.80
2018-07-14T16:02:36.322Z,44.40
2018-07-14T16:05:04.083Z,44.00
2018-07-14T16:07:31.681Z,44.70
2018-07-14T16:09:59.298Z,43.20
2018-07-14T16:12:26.911Z,42.90
2018-07-14T16:14:54.573Z,44.80
2018-07-14T16:17:22.167Z,45.90
2018-07-14T16:19:49.811Z,45.10
2018-07-14T16:22:17.443Z,45.00
2018-07-14T16:24:45.084Z,45.80
2018-07-14T16:27:12.725Z,45.00
2018-07-14T16:29:40.349Z,43.90
2018-07-14T16:32:07.983Z,44.50
2018-07-14T16:34:35.579Z,44.60
2018-07-14T16:37:03.313Z,45.70
2018-07-14T16:39:30.943Z,45.20
2018-07-14T16:41:58.590Z,47.40
2018-07-14T16:44:26.336Z,47.30
2018-07-14T16:46:53.917Z,44.80
2018-07-14T16:49:21.542Z,44.00
2018-07-14T16:51:49.197Z,44.50
2018-07-14T16:54:16.872Z,43.70
2018-07-14T16:56:44.533Z,43.20
2018-07-14T16:59:12.130Z,42.30
2018-07-14T17:01:40.025Z,43.10
2018-07-14T17:04:07.725Z,43.00
2018-07-14T17:06:35.334Z,43.90
2018-07-14T17:09:03.904Z,44.20
2018-07-14T17:11:31.528Z,45.70
2018-07-14T17:13:59.235Z,46.90
2018-07-14T17:16:26.823Z,46.80
2018-07-14T17:18:54.429Z,47.50
2018-07-14T17:21:22.060Z,47.60
2018-07-14T17:23:49.662Z,47.70
2018-07-14T17:26:17.291Z,47.90
2018-07-14T17:28:44.964Z,49.30
2018-07-14T17:31:12.594Z,49.40
2018-07-14T17:33:40.190Z,49.00
2018-07-14T17:36:07.760Z,48.80
2018-07-14T17:38:35.448Z,49.70
2018-07-14T17:41:03.128Z,49.50
2018-07-14T17:43:30.753Z,49.60
2018-07-14T17:45:58.432Z,50.70
2018-07-14T17:48:26.018Z,50.90
2018-07-14T17:50:53.631Z,50.30
2018-07-14T17:53:21.207Z,51.60
2018-07-14T17:55:49.333Z,52.30
2018-07-14T17:58:17.017Z,51.10
2018-07-14T18:00:44.624Z,51.90
2018-07-14T18:03:12.224Z,53.20
2018-07-14T18:05:39.867Z,53.10
2018-07-14T18:08:07.479Z,53.20
2018-07-14T18:10:35.144Z,52.70
2018-07-14T18:13:02.770Z,52.70
2018-07-14T18:15:30.323Z,52.40
2018-07-14T18:17:57.918Z,52.70
2018-07-14T18:20:25.533Z,52.40
2018-07-14T18:22:53.140Z,52.80
2018-07-14T18:25:20.726Z,53.00
2018-07-14T18:27:48.328Z,53.70
2018-07-14T18:30:15.944Z,54.20
2018-07-14T18:32:43.567Z,54.40
2018-07-14T18:35:11.203Z,54.60
2018-07-14T18:37:38.809Z,54.90
2018-07-14T18:40:06.404Z,55.20
2018-07-14T18:42:34.022Z,55.40
2018-07-14T18:45:01.610Z,55.50
2018-07-14T18:47:29.237Z,55.80
2018-07-14T18:49:57.484Z,55.90
2018-07-14T18:52:25.168Z,56.30
2018-07-14T18:54:52.664Z,56.50
2018-07-14T18:57:20.282Z,56.40
2018-07-14T18:59:47.972Z,57.10
2018-07-14T19:02:15.549Z,57.80
2018-07-14T19:04:43.183Z,57.80
2018-07-14T19:07:10.822Z,58.30
2018-07-14T19:09:38.442Z,58.50
2018-07-14T19:12:06.108Z,58.70
2018-07-14T19:14:33.767Z,59.00
2018-07-14T19:17:01.419Z,59.30
2018-07-14T19:19:29.056Z,59.70
2018-07-14T19:21:56.633Z,59.90
2018-07-14T19:24:24.265Z,59.90
2018-07-14T19:26:51.875Z,60.20
2018-07-14T19:29:19.517Z,60.60
2018-07-14T19:34:14.629Z,61.10
2018-07-14T19:36:42.253Z,61.50
2018-07-14T19:39:09.852Z,61.80
2018-07-14T19:41:38.147Z,62.10
2018-07-14T19:44:05.729Z,62.40
2018-07-14T19:46:33.323Z,63.30
2018-07-14T19:49:00.954Z,63.20
2018-07-14T19:51:28.538Z,63.60
2018-07-14T19:53:56.335Z,63.80
2018-07-14T19:56:27.635Z,64.00
2018-07-14T19:58:55.267Z,64.10
2018-07-14T20:01:22.862Z,65.20
2018-07-14T20:03:50.486Z,65.90
2018-07-14T20:06:18.187Z,66.50
2018-07-14T20:08:45.762Z,66.70
2018-07-14T20:11:13.391Z,66.60
2018-07-14T20:13:41.026Z,66.80
2018-07-14T20:16:12.120Z,66.90
2018-07-14T20:18:39.799Z,67.30
2018-07-14T20:21:07.484Z,67.50
2018-07-14T20:23:35.060Z,67.80
2018-07-14T20:26:03.724Z,67.90
2018-07-14T20:30:58.812Z,67.50
2018-07-14T20:33:26.428Z,67.30
2018-07-14T20:35:54.017Z,67.30
2018-07-14T20:38:21.616Z,67.50
2018-07-14T20:43:16.804Z,67.40
2018-07-14T20:45:44.395Z,67.70
2018-07-14T20:50:39.586Z,67.70
2018-07-14T20:53:08.214Z,68.20
2018-07-14T20:55:35.920Z,68.40
2018-07-14T20:58:03.520Z,68.40
2018-07-14T21:00:31.198Z,68.50
2018-07-14T21:02:58.839Z,68.70
2018-07-14T21:05:26.532Z,68.90
2018-07-14T21:07:54.158Z,68.80
2018-07-14T21:10:21.843Z,69.00
2018-07-14T21:12:49.521Z,69.00
2018-07-14T21:15:23.862Z,68.90
2018-07-14T21:17:51.496Z,69.30
2018-07-14T21:20:19.109Z,69.30
2018-07-14T21:22:46.753Z,69.50
2018-07-14T21:25:14.349Z,69.50
2018-07-14T21:27:41.968Z,69.60
2018-07-14T21:30:09.596Z,69.70
2018-07-14T21:32:37.189Z,69.70
2018-07-14T21:35:04.945Z,69.90
2018-07-14T21:37:33.231Z,69.90
2018-07-14T21:40:00.891Z,70.10
2018-07-14T21:42:28.493Z,70.10
2018-07-14T21:47:38.855Z,70.40
2018-07-14T21:50:06.424Z,70.80
2018-07-14T21:52:34.038Z,71.00
2018-07-14T21:55:01.777Z,71.10
2018-07-14T21:57:29.497Z,71.30
2018-07-14T21:59:57.110Z,72.00
2018-07-14T22:02:24.758Z,72.30
2018-07-14T22:04:52.376Z,72.50
2018-07-14T22:07:20.061Z,72.50
2018-07-14T22:09:47.647Z,72.40
2018-07-14T22:12:15.287Z,72.30
2018-07-14T22:14:42.807Z,72.40
2018-07-14T22:17:10.421Z,72.10
2018-07-14T22:24:33.040Z,72.20
2018-07-14T22:27:00.668Z,72.20
2018-07-14T22:29:28.285Z,71.80
2018-07-14T22:31:55.923Z,71.80
2018-07-14T22:34:23.536Z,72.00
2018-07-14T22:36:51.157Z,72.00
2018-07-14T22:39:18.731Z,72.00
2018-07-14T22:41:47.942Z,72.30
2018-07-14T22:44:16.161Z,72.20
2018-07-14T22:46:43.754Z,72.80
2018-07-14T22:49:11.480Z,73.20
2018-07-14T22:51:39.022Z,73.20
2018-07-14T22:54:06.646Z,73.20
2018-07-14T22:56:34.281Z,73.20
2018-07-14T22:59:01.879Z,73.20
2018-07-14T23:01:29.476Z,72.60
2018-07-14T23:03:57.109Z,72.70
2018-07-14T23:06:24.679Z,72.80
2018-07-14T23:08:52.252Z,73.00
2018-07-14T23:11:19.823Z,73.30
2018-07-14T23:13:47.436Z,73.40
2018-07-14T23:16:15.029Z,73.40
2018-07-14T23:18:42.689Z,73.40
2018-07-14T23:21:11.106Z,73.70
2018-07-14T23:23:38.698Z,73.90
2018-07-14T23:26:06.320Z,73.90
2018-07-14T23:28:33.934Z,73.90
2018-07-14T23:31:01.538Z,73.50
2018-07-14T23:33:29.151Z,73.30
2018-07-14T23:35:56.749Z,73.30
2018-07-14T23:38:24.360Z,73.20
2018-07-14T23:40:51.955Z,73.30
2018-07-14T23:43:19.580Z,73.60
2018-07-14T23:45:47.178Z,73.80
2018-07-14T23:48:14.759Z,73.90
2018-07-14T23:50:42.392Z,74.10
2018-07-14T23:53:09.948Z,74.20
2018-07-14T23:55:37.527Z,74.50
2018-07-14T23:58:05.283Z,74.60
